North Pointe, South Carolina
Current Conditions -  °F | °C
As of 1:58 AM on Saturday 01 Nov 2014 (Local Time) from KMMT Reporting Station
Broken Clouds Broken Clouds  
Wind Chill: 52°   Ceiling: 10000
Heat Index: 52°   Visibility: 10mi
Dew Point: 49°   Wind: 7mph
Humidity: 91%   Direction: 280°W
Pressure: 29.72"   Gusts: NA
Location:  34.0558°N, 80.8483°W
Report Text: KMMT 010558Z AUTO 28006KT 10SM BKN100 11/10 A2972 RMK AO2 SLP066 60008 T01100096 10138 20110 57022
Loading
Personal Weather Stations






























Interactive Weather Map
Tropical Storm Tracking
New forecast layout! Learn more

10-Day Weather Forecast

Advertisements
Track Severe Weather on mobile